Rothschild, Wisconsin
Current Conditions -  °F | °C
As of 8:10 PM on Friday 28 Nov 2014 (Local Time) from KAUW Reporting Station
Scattered Clouds Scattered Clouds  
Wind Chill: -12°   Ceiling: Unl
Heat Index: -8°   Visibility: 9mi
Dew Point: -9°   Wind: 5mph
Humidity: 88%   Direction: 90°E
Pressure: 29.87"   Gusts: NA
Location:  44.89°N, 89.62°W
Report Text: KAUW 290210Z AUTO 09004KT 9SM SCT009 SCT100 SCT120 M08/M09 A2987 RMK AO2 T10781094
Loading
Personal Weather Stations






























Interactive Weather Map New forecast layout! Learn more

10-Day Weather Forecast

Advertisements
Track Severe Weather on mobile